createdAt,value
2022-10-07T00:00:51.663Z,5.90
2022-10-07T00:03:19.767Z,6.55
2022-10-07T00:05:47.168Z,7.10
2022-10-07T00:08:14.515Z,6.60
2022-10-07T00:10:43.220Z,6.15
2022-10-07T00:13:12.131Z,6.20
2022-10-07T00:15:39.796Z,6.65
2022-10-07T00:18:07.033Z,6.88
2022-10-07T00:20:40.383Z,7.60
2022-10-07T00:23:08.201Z,6.57
2022-10-07T00:25:38.379Z,6.30
2022-10-07T00:28:06.289Z,6.57
2022-10-07T00:30:33.649Z,6.97
2022-10-07T00:33:00.893Z,7.13
2022-10-07T00:35:28.389Z,6.65
2022-10-07T00:37:55.582Z,7.35
2022-10-07T00:40:22.732Z,7.70
2022-10-07T00:42:49.938Z,7.22
2022-10-07T00:45:19.375Z,7.15
2022-10-07T00:47:47.843Z,7.55
2022-10-07T00:50:19.165Z,7.38
2022-10-07T00:52:52.395Z,7.32
2022-10-07T00:55:22.036Z,7.47
2022-10-07T00:57:49.865Z,7.45
2022-10-07T01:00:17.397Z,7.05
2022-10-07T01:02:45.453Z,7.75
2022-10-07T01:05:14.243Z,7.03
2022-10-07T01:07:41.998Z,7.38
2022-10-07T01:10:11.725Z,7.22
2022-10-07T01:12:51.520Z,6.95
2022-10-07T01:15:39.550Z,7.50
2022-10-07T01:18:17.584Z,7.53
2022-10-07T01:20:53.845Z,7.28
2022-10-07T01:23:40.839Z,8.23
2022-10-07T01:26:14.197Z,8.13
2022-10-07T01:28:50.582Z,7.78
2022-10-07T01:31:20.604Z,7.70
2022-10-07T01:33:48.883Z,7.63
2022-10-07T01:36:17.857Z,7.60
2022-10-07T01:38:50.188Z,7.75
2022-10-07T01:41:18.924Z,7.55
2022-10-07T01:43:52.852Z,8.27
2022-10-07T01:46:24.609Z,8.15
2022-10-07T01:48:53.042Z,7.32
2022-10-07T01:51:22.821Z,8.38
2022-10-07T01:54:05.396Z,8.20
2022-10-07T01:56:57.251Z,8.45
2022-10-07T01:59:36.587Z,8.02
2022-10-07T02:02:15.910Z,8.30
2022-10-07T02:04:49.101Z,9.00
2022-10-07T02:07:16.206Z,8.20
2022-10-07T02:10:06.714Z,8.50
2022-10-07T02:12:38.206Z,8.07
2022-10-07T02:15:17.267Z,8.90
2022-10-07T02:17:47.776Z,8.43
2022-10-07T02:20:15.931Z,7.57
2022-10-07T02:22:45.893Z,8.07
2022-10-07T02:25:14.901Z,8.55
2022-10-07T02:27:43.688Z,8.57
2022-10-07T02:30:12.722Z,7.40
2022-10-07T02:32:42.509Z,6.50
2022-10-07T02:35:17.426Z,6.43
2022-10-07T02:37:45.706Z,6.20
2022-10-07T02:40:13.181Z,5.65
2022-10-07T02:43:01.171Z,6.10
2022-10-07T02:45:28.407Z,5.88
2022-10-07T02:48:05.900Z,5.60
2022-10-07T02:50:37.383Z,6.13
2022-10-07T02:53:05.774Z,5.72
2022-10-07T02:55:35.010Z,5.90
2022-10-07T02:58:03.717Z,4.90
2022-10-07T03:00:32.220Z,5.28
2022-10-07T03:03:03.660Z,5.35
2022-10-07T03:05:30.829Z,5.40
2022-10-07T03:08:02.995Z,5.72
2022-10-07T03:10:30.160Z,5.22
2022-10-07T03:12:57.558Z,5.82
2022-10-07T03:15:25.971Z,5.32
2022-10-07T03:17:53.237Z,5.57
2022-10-07T03:20:20.387Z,5.85
2022-10-07T03:22:47.595Z,5.82
2022-10-07T03:25:15.423Z,6.25
2022-10-07T03:27:43.368Z,6.60
2022-10-07T03:30:11.625Z,6.15
2022-10-07T03:32:39.572Z,6.32
2022-10-07T03:35:06.965Z,6.13
2022-10-07T03:37:34.220Z,6.57
2022-10-07T03:40:01.393Z,6.20
2022-10-07T03:42:28.546Z,6.00
2022-10-07T03:44:55.797Z,5.53
2022-10-07T03:47:22.951Z,5.13
2022-10-07T03:49:50.383Z,5.47
2022-10-07T03:52:17.669Z,4.95
2022-10-07T03:54:44.789Z,4.88
2022-10-07T03:57:30.843Z,4.75
2022-10-07T03:59:58.803Z,4.32
2022-10-07T04:02:26.002Z,4.50
2022-10-07T04:04:53.410Z,4.68
2022-10-07T04:07:22.116Z,4.78
2022-10-07T04:09:49.519Z,4.43
2022-10-07T04:12:16.832Z,5.10
2022-10-07T04:14:43.987Z,4.45
2022-10-07T04:17:11.203Z,4.18
2022-10-07T04:19:38.418Z,4.07
2022-10-07T04:22:08.965Z,4.10
2022-10-07T04:24:36.373Z,4.07
2022-10-07T04:27:05.185Z,3.60
2022-10-07T04:29:38.125Z,3.60
2022-10-07T04:32:06.349Z,3.75
2022-10-07T04:34:33.525Z,4.07
2022-10-07T04:37:01.296Z,3.60
2022-10-07T04:39:49.080Z,3.47
2022-10-07T04:42:34.654Z,3.72
2022-10-07T04:45:01.947Z,3.53
2022-10-07T04:47:29.082Z,4.38
2022-10-07T04:49:56.337Z,3.85
2022-10-07T04:52:23.619Z,4.20
2022-10-07T04:54:51.666Z,4.55
2022-10-07T04:57:18.849Z,4.40
2022-10-07T04:59:46.151Z,4.38
2022-10-07T05:02:13.369Z,4.30
2022-10-07T05:04:40.563Z,4.00
2022-10-07T05:07:08.728Z,4.10
2022-10-07T05:09:35.887Z,3.55
2022-10-07T05:12:03.022Z,3.65
2022-10-07T05:14:30.301Z,4.57
2022-10-07T05:16:57.446Z,3.67
2022-10-07T05:19:24.656Z,3.30
2022-10-07T05:21:51.874Z,4.03
2022-10-07T05:24:19.017Z,3.63
2022-10-07T05:26:46.150Z,4.35
2022-10-07T05:29:13.375Z,3.22
2022-10-07T05:31:40.626Z,3.25
2022-10-07T05:34:08.132Z,2.97
2022-10-07T05:36:35.730Z,2.50
2022-10-07T05:39:02.865Z,3.20
2022-10-07T05:41:30.020Z,3.17
2022-10-07T05:43:57.369Z,3.60
2022-10-07T05:46:24.626Z,3.50
2022-10-07T05:48:53.016Z,3.17
2022-10-07T05:51:21.119Z,3.42
2022-10-07T05:53:48.529Z,3.17
2022-10-07T05:56:16.793Z,3.42
2022-10-07T05:58:44.221Z,3.47
2022-10-07T06:01:16.194Z,3.42
2022-10-07T06:03:44.159Z,3.47
2022-10-07T06:06:11.467Z,3.20
2022-10-07T06:08:38.621Z,3.65
2022-10-07T06:11:25.422Z,3.72
2022-10-07T06:13:53.607Z,3.25
2022-10-07T06:16:20.871Z,3.83
2022-10-07T06:18:50.517Z,3.97
2022-10-07T06:21:17.979Z,3.40
2022-10-07T06:23:45.374Z,3.45
2022-10-07T06:26:13.683Z,3.30
2022-10-07T06:28:42.106Z,4.20
2022-10-07T06:31:16.049Z,3.30
2022-10-07T06:33:43.583Z,3.63
2022-10-07T06:36:12.338Z,2.97
2022-10-07T06:38:39.646Z,2.45
2022-10-07T06:41:07.112Z,3.17
2022-10-07T06:43:34.993Z,3.17
2022-10-07T06:46:03.841Z,2.88
2022-10-07T06:48:32.070Z,3.40
2022-10-07T06:51:00.029Z,3.20
2022-10-07T06:53:27.598Z,2.88
2022-10-07T06:55:57.718Z,2.50
2022-10-07T06:58:26.024Z,2.90
2022-10-07T07:00:57.265Z,2.67
2022-10-07T07:03:25.138Z,2.33
2022-10-07T07:05:54.674Z,2.40
2022-10-07T07:08:25.379Z,2.72
2022-10-07T07:10:52.613Z,2.83
2022-10-07T07:13:19.829Z,4.95
2022-10-07T07:15:57.405Z,2.90
2022-10-07T07:18:25.035Z,3.03
2022-10-07T07:20:52.310Z,2.95
2022-10-07T07:23:19.589Z,3.10
2022-10-07T07:25:46.773Z,3.05
2022-10-07T07:28:15.723Z,3.15
2022-10-07T07:30:43.437Z,2.20
2022-10-07T07:33:10.754Z,2.88
2022-10-07T07:35:39.962Z,3.10
2022-10-07T07:38:07.223Z,2.33
2022-10-07T07:40:36.885Z,2.80
2022-10-07T07:43:04.366Z,2.72
2022-10-07T07:45:33.178Z,2.90
2022-10-07T07:48:00.649Z,2.72
2022-10-07T07:50:27.804Z,2.58
2022-10-07T07:52:57.469Z,2.88
2022-10-07T07:55:25.129Z,2.60
2022-10-07T07:57:52.277Z,2.45
2022-10-07T08:00:19.928Z,1.80
2022-10-07T08:02:47.594Z,2.40
2022-10-07T08:05:14.809Z,2.70
2022-10-07T08:07:42.075Z,2.72
2022-10-07T08:10:09.413Z,2.65
2022-10-07T08:12:36.554Z,2.25
2022-10-07T08:15:03.786Z,2.50
2022-10-07T08:17:30.964Z,3.17
2022-10-07T08:19:58.148Z,2.20
2022-10-07T08:22:25.444Z,2.42
2022-10-07T08:24:52.995Z,2.22
2022-10-07T08:27:20.490Z,3.13
2022-10-07T08:29:47.782Z,2.47
2022-10-07T08:32:14.925Z,2.78
2022-10-07T08:34:42.108Z,2.20
2022-10-07T08:37:09.335Z,2.10
2022-10-07T08:39:36.603Z,2.88
2022-10-07T08:42:08.675Z,2.83
2022-10-07T08:44:40.172Z,2.63
2022-10-07T08:47:07.373Z,3.17
2022-10-07T08:49:37.963Z,3.10
2022-10-07T08:52:18.624Z,3.60
2022-10-07T08:54:45.770Z,3.00
2022-10-07T08:57:34.517Z,2.88
2022-10-07T09:00:05.600Z,2.30
2022-10-07T09:05:07.114Z,2.63
2022-10-07T09:07:38.899Z,3.63
2022-10-07T09:10:25.184Z,2.88
2022-10-07T09:13:12.666Z,2.90
2022-10-07T09:15:49.937Z,2.92
2022-10-07T09:18:22.259Z,3.75
2022-10-07T09:20:57.088Z,3.22
2022-10-07T09:23:31.434Z,2.88
2022-10-07T09:25:58.748Z,2.70
2022-10-07T09:28:33.442Z,2.83
2022-10-07T09:31:03.031Z,2.70
2022-10-07T09:33:30.425Z,2.55
2022-10-07T09:35:59.537Z,2.65
2022-10-07T09:38:31.643Z,2.40
2022-10-07T09:41:16.139Z,2.78
2022-10-07T09:43:58.059Z,2.65
2022-10-07T09:46:37.165Z,3.13
2022-10-07T09:49:05.618Z,2.85
2022-10-07T09:51:35.146Z,2.63
2022-10-07T09:54:07.086Z,2.50
2022-10-07T09:56:38.915Z,2.70
2022-10-07T09:59:20.081Z,2.75
2022-10-07T10:04:18.454Z,2.92
2022-10-07T10:06:49.794Z,2.90
2022-10-07T10:09:26.645Z,2.85
2022-10-07T10:12:05.916Z,3.03
2022-10-07T10:14:41.969Z,2.65
2022-10-07T10:17:21.859Z,2.85
2022-10-07T10:19:49.035Z,2.35
2022-10-07T10:22:30.864Z,2.50
2022-10-07T10:25:16.946Z,2.40
2022-10-07T10:27:50.832Z,2.88
2022-10-07T10:30:20.911Z,2.97
2022-10-07T10:33:02.919Z,1.95
2022-10-07T10:35:31.798Z,2.00
2022-10-07T10:38:02.222Z,2.33
2022-10-07T10:40:42.971Z,1.80
2022-10-07T10:43:20.283Z,1.90
2022-10-07T10:45:50.224Z,1.73
2022-10-07T10:48:29.165Z,2.05
2022-10-07T10:50:59.138Z,2.33
2022-10-07T10:53:32.118Z,3.03
2022-10-07T10:56:14.330Z,2.10
2022-10-07T10:58:58.456Z,2.20
2022-10-07T11:01:51.721Z,2.35
2022-10-07T11:04:31.174Z,2.40
2022-10-07T11:07:03.357Z,2.30
2022-10-07T11:09:42.583Z,2.20
2022-10-07T11:12:21.592Z,2.53
2022-10-07T11:14:55.730Z,2.28
2022-10-07T11:17:27.352Z,3.45
2022-10-07T11:20:05.687Z,2.60
2022-10-07T11:22:37.240Z,2.08
2022-10-07T11:25:09.310Z,2.50
2022-10-07T11:27:36.561Z,1.95
2022-10-07T11:30:03.696Z,2.20
2022-10-07T11:32:42.830Z,2.40
2022-10-07T11:35:23.536Z,2.72
2022-10-07T11:37:59.373Z,2.10
2022-10-07T11:40:29.092Z,2.97
2022-10-07T11:42:57.747Z,2.55
2022-10-07T11:45:27.514Z,2.60
2022-10-07T11:47:56.957Z,2.60
2022-10-07T11:50:27.214Z,3.53
2022-10-07T11:52:55.965Z,2.47
2022-10-07T11:55:27.565Z,2.60
2022-10-07T11:57:56.594Z,2.20
2022-10-07T12:00:36.808Z,2.70
2022-10-07T12:03:19.411Z,2.23
2022-10-07T12:05:53.336Z,2.92
2022-10-07T12:08:37.346Z,2.15
2022-10-07T12:11:14.377Z,2.65
2022-10-07T12:13:52.158Z,2.10
2022-10-07T12:16:39.354Z,2.15
2022-10-07T12:19:06.572Z,2.42
2022-10-07T12:21:52.389Z,2.00
2022-10-07T12:24:19.588Z,2.25
2022-10-07T12:26:47.162Z,2.15
2022-10-07T12:29:22.615Z,2.70
2022-10-07T12:31:50.093Z,2.28
2022-10-07T12:34:37.654Z,2.50
2022-10-07T12:37:37.203Z,2.38
2022-10-07T12:40:36.978Z,2.22
2022-10-07T12:43:25.218Z,2.40
2022-10-07T12:45:52.744Z,2.33
2022-10-07T12:48:21.544Z,2.50
2022-10-07T12:50:51.190Z,2.13
2022-10-07T12:53:19.374Z,1.92
2022-10-07T12:55:52.025Z,2.42
2022-10-07T12:58:53.214Z,2.17
2022-10-07T13:01:31.659Z,2.47
2022-10-07T13:04:09.118Z,2.17
2022-10-07T13:06:45.648Z,2.47
2022-10-07T13:09:22.013Z,2.13
2022-10-07T13:11:52.194Z,2.20
2022-10-07T13:14:28.580Z,2.50
2022-10-07T13:17:01.579Z,2.30
2022-10-07T13:19:36.667Z,2.15
2022-10-07T13:22:10.510Z,2.22
2022-10-07T13:24:40.078Z,2.38
2022-10-07T13:27:10.590Z,2.70
2022-10-07T13:29:38.962Z,2.00
2022-10-07T13:32:17.460Z,2.10
2022-10-07T13:34:48.183Z,1.77
2022-10-07T13:37:21.573Z,2.10
2022-10-07T13:39:48.761Z,2.05
2022-10-07T13:42:20.502Z,1.67
2022-10-07T13:44:48.552Z,2.03
2022-10-07T13:47:19.901Z,1.90
2022-10-07T13:49:49.272Z,1.75
2022-10-07T13:52:21.337Z,2.17
2022-10-07T13:54:52.351Z,1.88
2022-10-07T13:59:49.240Z,2.50
2022-10-07T14:02:17.084Z,2.35
2022-10-07T14:05:00.709Z,2.08
2022-10-07T14:07:29.264Z,1.77
2022-10-07T14:09:59.539Z,2.10
2022-10-07T14:12:31.108Z,1.95
2022-10-07T14:15:02.707Z,1.90
2022-10-07T14:17:41.429Z,1.98
2022-10-07T14:20:27.226Z,2.60
2022-10-07T14:22:56.734Z,2.13
2022-10-07T14:25:28.073Z,1.85
2022-10-07T14:27:58.970Z,2.03
2022-10-07T14:30:26.390Z,1.95
2022-10-07T14:33:17.827Z,1.80
2022-10-07T14:35:45.528Z,1.98
2022-10-07T14:38:41.196Z,2.10
2022-10-07T14:41:09.499Z,2.65
2022-10-07T14:43:37.328Z,2.15
2022-10-07T14:46:31.095Z,2.05
2022-10-07T14:48:58.277Z,2.60
2022-10-07T14:51:27.209Z,1.83
2022-10-07T14:53:57.230Z,1.75
2022-10-07T14:56:31.014Z,2.00
2022-10-07T14:58:58.432Z,1.88
2022-10-07T15:01:26.608Z,1.98
2022-10-07T15:03:53.880Z,1.60
2022-10-07T15:06:21.586Z,2.00
2022-10-07T15:08:49.193Z,1.95
2022-10-07T15:11:17.946Z,1.75
2022-10-07T15:13:47.810Z,1.98
2022-10-07T15:16:16.293Z,2.05
2022-10-07T15:18:46.973Z,1.90
2022-10-07T15:21:16.905Z,1.90
2022-10-07T15:23:44.966Z,2.25
2022-10-07T15:26:12.200Z,2.42
2022-10-07T15:28:39.548Z,2.28
2022-10-07T15:31:08.250Z,2.58
2022-10-07T15:33:36.586Z,2.55
2022-10-07T15:36:03.898Z,2.60
2022-10-07T15:38:31.996Z,2.47
2022-10-07T15:41:00.401Z,2.30
2022-10-07T15:43:28.028Z,2.65
2022-10-07T15:45:59.066Z,2.28
2022-10-07T15:50:54.284Z,2.60
2022-10-07T15:53:22.094Z,2.53
2022-10-07T15:55:54.484Z,3.05
2022-10-07T15:58:25.945Z,2.90
2022-10-07T16:00:59.963Z,2.35
2022-10-07T16:03:27.944Z,2.72
2022-10-07T16:06:02.208Z,2.75
2022-10-07T16:08:32.538Z,2.95
2022-10-07T16:11:03.562Z,2.80
2022-10-07T16:13:30.811Z,2.25
2022-10-07T16:16:06.523Z,3.22
2022-10-07T16:18:38.503Z,2.75
2022-10-07T16:21:06.082Z,3.15
2022-10-07T16:23:34.070Z,3.58
2022-10-07T16:26:21.294Z,2.80
2022-10-07T16:29:08.115Z,3.42
2022-10-07T16:31:36.193Z,2.90
2022-10-07T16:34:03.944Z,2.95
2022-10-07T16:36:31.408Z,3.30
2022-10-07T16:39:03.456Z,3.35
2022-10-07T16:41:31.646Z,3.67
2022-10-07T16:43:59.638Z,3.53
2022-10-07T16:46:27.223Z,3.63
2022-10-07T16:48:54.807Z,3.50
2022-10-07T16:51:23.094Z,3.75
2022-10-07T16:53:51.245Z,3.60
2022-10-07T16:56:19.088Z,5.07
2022-10-07T16:58:47.042Z,5.43
2022-10-07T17:01:17.636Z,5.28
2022-10-07T17:03:47.542Z,6.25
2022-10-07T17:06:15.854Z,5.90
2022-10-07T17:08:47.532Z,5.80
2022-10-07T17:11:29.285Z,6.28
2022-10-07T17:14:04.904Z,5.60
2022-10-07T17:16:34.542Z,5.53
2022-10-07T17:19:01.738Z,5.65
2022-10-07T17:21:28.899Z,5.40
2022-10-07T17:23:58.746Z,6.18
2022-10-07T17:26:27.050Z,7.55
2022-10-07T17:28:58.768Z,6.97
2022-10-07T17:31:26.758Z,7.60
2022-10-07T17:33:53.967Z,8.70
2022-10-07T17:36:21.415Z,8.25
2022-10-07T17:38:48.607Z,8.85
2022-10-07T17:41:22.170Z,6.65
2022-10-07T17:43:49.896Z,7.95
2022-10-07T17:46:18.002Z,8.02
2022-10-07T17:48:45.738Z,7.80
2022-10-07T17:51:13.417Z,9.05
2022-10-07T17:53:40.729Z,8.15
2022-10-07T17:56:10.016Z,8.63
2022-10-07T17:58:38.196Z,8.85
2022-10-07T18:01:07.078Z,8.00
2022-10-07T18:03:34.447Z,8.00
2022-10-07T18:06:03.608Z,8.90
2022-10-07T18:08:30.965Z,8.07
2022-10-07T18:10:58.245Z,8.10
2022-10-07T18:13:43.930Z,8.35
2022-10-07T18:16:14.122Z,9.98
2022-10-07T18:18:41.654Z,8.07
2022-10-07T18:21:09.120Z,8.63
2022-10-07T18:23:36.661Z,8.32
2022-10-07T18:26:05.008Z,7.93
2022-10-07T18:28:35.627Z,10.90
2022-10-07T18:31:06.050Z,8.73
2022-10-07T18:33:36.547Z,10.38
2022-10-07T18:36:11.534Z,13.32
2022-10-07T18:38:40.814Z,10.55
2022-10-07T18:41:09.500Z,11.10
2022-10-07T18:43:37.027Z,9.60
2022-10-07T18:46:05.596Z,9.30
2022-10-07T18:48:33.670Z,12.43
2022-10-07T18:51:01.142Z,10.52
2022-10-07T18:53:30.787Z,11.93
2022-10-07T18:56:05.026Z,11.38
2022-10-07T18:58:35.802Z,12.73
2022-10-07T19:01:10.807Z,12.43
2022-10-07T19:03:38.064Z,9.73
2022-10-07T19:06:06.764Z,11.50
2022-10-07T19:08:34.311Z,10.45
2022-10-07T19:11:05.619Z,11.63
2022-10-07T19:13:48.871Z,11.82
2022-10-07T19:16:21.116Z,9.95
2022-10-07T19:18:49.426Z,10.35
2022-10-07T19:21:19.027Z,10.30
2022-10-07T19:23:47.327Z,10.45
2022-10-07T19:26:17.755Z,10.55
2022-10-07T19:28:48.901Z,9.57
2022-10-07T19:31:18.154Z,10.05
2022-10-07T19:33:46.025Z,9.40
2022-10-07T19:36:14.481Z,10.10
2022-10-07T19:38:43.376Z,9.95
2022-10-07T19:41:11.990Z,9.55
2022-10-07T19:43:40.626Z,9.30
2022-10-07T19:46:08.655Z,10.13
2022-10-07T19:48:36.197Z,10.38
2022-10-07T19:51:14.145Z,10.95
2022-10-07T19:53:46.883Z,10.70
2022-10-07T19:56:16.766Z,10.30
2022-10-07T19:58:47.445Z,9.55
2022-10-07T20:01:15.404Z,10.55
2022-10-07T20:03:42.929Z,13.18
2022-10-07T20:06:11.304Z,12.93
2022-10-07T20:08:39.884Z,11.07
2022-10-07T20:11:07.441Z,11.68
2022-10-07T20:13:35.805Z,12.02
2022-10-07T20:16:05.140Z,12.05
2022-10-07T20:18:33.087Z,12.48
2022-10-07T20:21:10.704Z,10.70
2022-10-07T20:23:41.536Z,10.05
2022-10-07T20:26:09.607Z,10.18
2022-10-07T20:28:40.540Z,9.98
2022-10-07T20:31:11.882Z,11.48
2022-10-07T20:36:10.802Z,10.37
2022-10-07T20:38:57.509Z,9.45
2022-10-07T20:41:44.038Z,10.40
2022-10-07T20:44:12.245Z,11.35
2022-10-07T20:46:39.633Z,10.35
2022-10-07T20:49:23.217Z,11.98
2022-10-07T20:51:51.381Z,10.60
2022-10-07T20:54:19.209Z,10.45
2022-10-07T20:56:47.003Z,11.65
2022-10-07T20:59:14.335Z,9.45
2022-10-07T21:01:42.500Z,8.70
2022-10-07T21:04:11.105Z,10.73
2022-10-07T21:06:39.536Z,10.32
2022-10-07T21:09:07.381Z,9.85
2022-10-07T21:11:34.730Z,9.57
2022-10-07T21:14:01.977Z,9.60
2022-10-07T21:16:30.419Z,9.10
2022-10-07T21:18:57.839Z,9.75
2022-10-07T21:21:25.415Z,8.77
2022-10-07T21:23:52.975Z,8.90
2022-10-07T21:26:20.605Z,8.85
2022-10-07T21:28:50.604Z,9.45
2022-10-07T21:31:21.728Z,9.90
2022-10-07T21:36:17.570Z,10.15
2022-10-07T21:38:46.350Z,9.70
2022-10-07T21:41:18.387Z,9.20
2022-10-07T21:43:55.571Z,9.88
2022-10-07T21:46:23.449Z,9.52
2022-10-07T21:48:50.925Z,9.32
2022-10-07T21:51:18.520Z,9.43
2022-10-07T21:53:50.008Z,10.02
2022-10-07T21:56:17.364Z,8.98
2022-10-07T21:58:47.183Z,9.63
2022-10-07T22:01:16.393Z,9.07
2022-10-07T22:03:44.276Z,9.57
2022-10-07T22:06:13.581Z,9.63
2022-10-07T22:08:41.304Z,9.52
2022-10-07T22:11:13.198Z,9.52
2022-10-07T22:13:44.631Z,9.32
2022-10-07T22:16:14.923Z,8.95
2022-10-07T22:18:45.825Z,9.40
2022-10-07T22:21:33.156Z,9.43
2022-10-07T22:24:01.570Z,9.75
2022-10-07T22:26:30.092Z,10.95
2022-10-07T22:28:57.295Z,10.80
2022-10-07T22:31:26.279Z,9.80
2022-10-07T22:33:54.831Z,9.35
2022-10-07T22:36:22.572Z,9.77
2022-10-07T22:38:49.936Z,10.40
2022-10-07T22:41:19.311Z,9.57
2022-10-07T22:43:47.082Z,8.45
2022-10-07T22:46:24.381Z,8.65
2022-10-07T22:48:52.529Z,8.43
2022-10-07T22:51:19.691Z,9.23
2022-10-07T22:53:50.951Z,9.20
2022-10-07T22:58:49.304Z,8.25
2022-10-07T23:01:17.505Z,7.80
2022-10-07T23:03:44.811Z,8.38
2022-10-07T23:06:13.118Z,8.43
2022-10-07T23:08:40.652Z,9.13
2022-10-07T23:11:08.754Z,10.90
2022-10-07T23:13:37.056Z,9.05
2022-10-07T23:16:06.235Z,8.50
2022-10-07T23:18:33.624Z,9.40
2022-10-07T23:21:01.571Z,9.35
2022-10-07T23:23:29.509Z,10.05
2022-10-07T23:25:56.865Z,10.23
2022-10-07T23:28:25.785Z,11.18
2022-10-07T23:30:53.418Z,10.07
2022-10-07T23:33:20.581Z,9.57
2022-10-07T23:35:47.719Z,9.30
2022-10-07T23:38:15.035Z,9.25
2022-10-07T23:40:42.163Z,9.95
2022-10-07T23:43:11.239Z,9.63
2022-10-07T23:45:38.559Z,11.60
2022-10-07T23:48:05.718Z,10.82
2022-10-07T23:50:32.871Z,10.57
2022-10-07T23:53:00.180Z,10.75
2022-10-07T23:55:27.324Z,10.73
2022-10-07T23:57:54.470Z,10.10
